sensor_id;sensor_type;location;lat;lon;timestamp;temperature;humidity
23147;DHT22;11742;53.532;-1.478;2022-11-20T00:02:01;10.30;93.90
23147;DHT22;11742;53.532;-1.478;2022-11-20T00:04:26;10.30;94.00
23147;DHT22;11742;53.532;-1.478;2022-11-20T00:06:52;10.30;93.90
23147;DHT22;11742;53.532;-1.478;2022-11-20T00:09:18;10.30;94.00
23147;DHT22;11742;53.532;-1.478;2022-11-20T00:11:43;10.30;93.90
23147;DHT22;11742;53.532;-1.478;2022-11-20T00:14:09;10.30;94.10
23147;DHT22;11742;53.532;-1.478;2022-11-20T00:16:35;10.30;93.90
23147;DHT22;11742;53.532;-1.478;2022-11-20T00:19:01;10.30;93.90
23147;DHT22;11742;53.532;-1.478;2022-11-20T00:21:28;10.20;94.00
23147;DHT22;11742;53.532;-1.478;2022-11-20T00:23:56;10.20;93.90
23147;DHT22;11742;53.532;-1.478;2022-11-20T00:26:23;10.20;93.90
23147;DHT22;11742;53.532;-1.478;2022-11-20T00:28:56;10.20;94.00
23147;DHT22;11742;53.532;-1.478;2022-11-20T00:31:22;10.20;93.90
23147;DHT22;11742;53.532;-1.478;2022-11-20T00:33:48;10.20;93.90
23147;DHT22;11742;53.532;-1.478;2022-11-20T00:36:22;10.20;93.90
23147;DHT22;11742;53.532;-1.478;2022-11-20T00:38:55;10.20;93.90
23147;DHT22;11742;53.532;-1.478;2022-11-20T00:41:21;10.20;93.90
23147;DHT22;11742;53.532;-1.478;2022-11-20T00:43:47;10.20;93.90
23147;DHT22;11742;53.532;-1.478;2022-11-20T00:46:18;10.20;93.90
23147;DHT22;11742;53.532;-1.478;2022-11-20T00:48:45;10.20;93.90
23147;DHT22;11742;53.532;-1.478;2022-11-20T00:51:13;10.20;93.90
23147;DHT22;11742;53.532;-1.478;2022-11-20T00:53:39;10.20;93.90
23147;DHT22;11742;53.532;-1.478;2022-11-20T00:56:06;10.20;93.90
23147;DHT22;11742;53.532;-1.478;2022-11-20T00:58:37;10.20;93.90
23147;DHT22;11742;53.532;-1.478;2022-11-20T01:03:35;10.20;93.90
23147;DHT22;11742;53.532;-1.478;2022-11-20T01:08:37;10.20;93.90
23147;DHT22;11742;53.532;-1.478;2022-11-20T01:11:08;10.10;93.90
23147;DHT22;11742;53.532;-1.478;2022-11-20T01:13:35;10.20;93.90
23147;DHT22;11742;53.532;-1.478;2022-11-20T01:16:13;10.20;93.90
23147;DHT22;11742;53.532;-1.478;2022-11-20T01:18:41;10.20;93.90
23147;DHT22;11742;53.532;-1.478;2022-11-20T01:21:13;10.20;93.90
23147;DHT22;11742;53.532;-1.478;2022-11-20T01:23:41;10.10;93.90
23147;DHT22;11742;53.532;-1.478;2022-11-20T01:26:12;10.10;93.90
23147;DHT22;11742;53.532;-1.478;2022-11-20T01:28:38;10.10;93.90
23147;DHT22;11742;53.532;-1.478;2022-11-20T01:31:31;10.10;93.90
23147;DHT22;11742;53.532;-1.478;2022-11-20T01:33:59;10.10;94.00
23147;DHT22;11742;53.532;-1.478;2022-11-20T01:36:27;10.10;93.90
23147;DHT22;11742;53.532;-1.478;2022-11-20T01:38:59;10.10;93.90
23147;DHT22;11742;53.532;-1.478;2022-11-20T01:41:26;10.10;94.00
23147;DHT22;11742;53.532;-1.478;2022-11-20T01:44:12;10.10;93.90
23147;DHT22;11742;53.532;-1.478;2022-11-20T01:46:47;10.10;93.90
23147;DHT22;11742;53.532;-1.478;2022-11-20T01:49:20;10.10;93.90
23147;DHT22;11742;53.532;-1.478;2022-11-20T01:51:55;10.10;94.00
23147;DHT22;11742;53.532;-1.478;2022-11-20T01:54:52;10.10;93.90
23147;DHT22;11742;53.532;-1.478;2022-11-20T01:57:20;10.10;94.00
23147;DHT22;11742;53.532;-1.478;2022-11-20T01:59:52;10.10;94.00
23147;DHT22;11742;53.532;-1.478;2022-11-20T02:02:20;10.10;94.00
23147;DHT22;11742;53.532;-1.478;2022-11-20T02:04:47;10.10;93.90
23147;DHT22;11742;53.532;-1.478;2022-11-20T02:07:14;10.10;93.90
23147;DHT22;11742;53.532;-1.478;2022-11-20T02:09:41;10.10;94.00
23147;DHT22;11742;53.532;-1.478;2022-11-20T02:12:06;10.10;94.00
23147;DHT22;11742;53.532;-1.478;2022-11-20T02:14:52;10.10;94.00
23147;DHT22;11742;53.532;-1.478;2022-11-20T02:17:18;10.00;93.90
23147;DHT22;11742;53.532;-1.478;2022-11-20T02:19:43;10.10;93.90
23147;DHT22;11742;53.532;-1.478;2022-11-20T02:22:25;10.00;93.90
23147;DHT22;11742;53.532;-1.478;2022-11-20T02:24:54;10.00;93.90
23147;DHT22;11742;53.532;-1.478;2022-11-20T02:27:20;10.00;93.90
23147;DHT22;11742;53.532;-1.478;2022-11-20T02:29:55;10.00;93.90
23147;DHT22;11742;53.532;-1.478;2022-11-20T02:32:26;10.00;93.90
23147;DHT22;11742;53.532;-1.478;2022-11-20T02:34:53;10.00;94.00
23147;DHT22;11742;53.532;-1.478;2022-11-20T02:37:19;10.00;94.00
23147;DHT22;11742;53.532;-1.478;2022-11-20T02:39:47;10.00;93.90
23147;DHT22;11742;53.532;-1.478;2022-11-20T02:42:14;10.00;94.00
23147;DHT22;11742;53.532;-1.478;2022-11-20T02:44:41;10.00;94.00
23147;DHT22;11742;53.532;-1.478;2022-11-20T02:47:06;10.00;94.10
23147;DHT22;11742;53.532;-1.478;2022-11-20T02:49:32;10.00;94.00
23147;DHT22;11742;53.532;-1.478;2022-11-20T02:51:58;10.00;94.00
23147;DHT22;11742;53.532;-1.478;2022-11-20T02:54:24;10.00;94.00
23147;DHT22;11742;53.532;-1.478;2022-11-20T02:56:50;10.00;94.00
23147;DHT22;11742;53.532;-1.478;2022-11-20T02:59:16;10.00;94.00
23147;DHT22;11742;53.532;-1.478;2022-11-20T03:01:42;10.00;94.00
23147;DHT22;11742;53.532;-1.478;2022-11-20T03:04:07;10.00;94.00
23147;DHT22;11742;53.532;-1.478;2022-11-20T03:06:33;9.90;93.90
23147;DHT22;11742;53.532;-1.478;2022-11-20T03:08:59;10.00;94.00
23147;DHT22;11742;53.532;-1.478;2022-11-20T03:11:25;9.90;94.00
23147;DHT22;11742;53.532;-1.478;2022-11-20T03:13:50;9.90;94.10
23147;DHT22;11742;53.532;-1.478;2022-11-20T03:16:19;9.90;94.00
23147;DHT22;11742;53.532;-1.478;2022-11-20T03:18:45;10.00;94.00
23147;DHT22;11742;53.532;-1.478;2022-11-20T03:21:12;9.90;94.00
23147;DHT22;11742;53.532;-1.478;2022-11-20T03:23:38;9.90;94.00
23147;DHT22;11742;53.532;-1.478;2022-11-20T03:26:16;9.90;94.00
23147;DHT22;11742;53.532;-1.478;2022-11-20T03:28:47;9.90;94.00
23147;DHT22;11742;53.532;-1.478;2022-11-20T03:31:14;9.90;94.00
23147;DHT22;11742;53.532;-1.478;2022-11-20T03:33:40;9.90;94.00
23147;DHT22;11742;53.532;-1.478;2022-11-20T03:36:09;9.90;94.00
23147;DHT22;11742;53.532;-1.478;2022-11-20T03:38:35;9.90;94.00
23147;DHT22;11742;53.532;-1.478;2022-11-20T03:41:03;9.90;94.00
23147;DHT22;11742;53.532;-1.478;2022-11-20T03:43:29;9.90;94.00
23147;DHT22;11742;53.532;-1.478;2022-11-20T03:45:55;9.90;94.00
23147;DHT22;11742;53.532;-1.478;2022-11-20T03:48:21;9.80;94.00
23147;DHT22;11742;53.532;-1.478;2022-11-20T03:50:47;9.90;94.00
23147;DHT22;11742;53.532;-1.478;2022-11-20T03:53:14;9.90;94.00
23147;DHT22;11742;53.532;-1.478;2022-11-20T03:55:39;9.80;94.00
23147;DHT22;11742;53.532;-1.478;2022-11-20T03:58:05;9.80;94.00
23147;DHT22;11742;53.532;-1.478;2022-11-20T04:00:31;9.90;94.00
23147;DHT22;11742;53.532;-1.478;2022-11-20T04:03:03;9.80;94.00
23147;DHT22;11742;53.532;-1.478;2022-11-20T04:05:28;9.80;94.00
23147;DHT22;11742;53.532;-1.478;2022-11-20T04:07:54;9.80;94.00
23147;DHT22;11742;53.532;-1.478;2022-11-20T04:10:20;9.80;94.20
23147;DHT22;11742;53.532;-1.478;2022-11-20T04:12:46;9.80;94.10
23147;DHT22;11742;53.532;-1.478;2022-11-20T04:15:11;9.80;94.10
23147;DHT22;11742;53.532;-1.478;2022-11-20T04:17:37;9.80;94.10
23147;DHT22;11742;53.532;-1.478;2022-11-20T04:20:03;9.80;94.10
23147;DHT22;11742;53.532;-1.478;2022-11-20T04:22:29;9.80;94.10
23147;DHT22;11742;53.532;-1.478;2022-11-20T04:24:54;9.80;94.10
23147;DHT22;11742;53.532;-1.478;2022-11-20T04:27:20;9.80;94.10
23147;DHT22;11742;53.532;-1.478;2022-11-20T04:29:46;9.80;94.10
23147;DHT22;11742;53.532;-1.478;2022-11-20T04:32:11;9.80;94.10
23147;DHT22;11742;53.532;-1.478;2022-11-20T04:34:37;9.70;94.40
23147;DHT22;11742;53.532;-1.478;2022-11-20T04:37:03;9.70;94.10
23147;DHT22;11742;53.532;-1.478;2022-11-20T04:39:28;9.70;94.00
23147;DHT22;11742;53.532;-1.478;2022-11-20T04:41:54;9.70;94.00
23147;DHT22;11742;53.532;-1.478;2022-11-20T04:44:40;9.80;94.10
23147;DHT22;11742;53.532;-1.478;2022-11-20T04:47:05;9.70;94.00
23147;DHT22;11742;53.532;-1.478;2022-11-20T04:49:31;9.70;94.00
23147;DHT22;11742;53.532;-1.478;2022-11-20T04:51:57;9.70;94.10
23147;DHT22;11742;53.532;-1.478;2022-11-20T04:54:23;9.70;94.10
23147;DHT22;11742;53.532;-1.478;2022-11-20T04:56:49;9.70;94.10
23147;DHT22;11742;53.532;-1.478;2022-11-20T04:59:15;9.70;94.10
23147;DHT22;11742;53.532;-1.478;2022-11-20T05:01:41;9.70;94.10
23147;DHT22;11742;53.532;-1.478;2022-11-20T05:04:07;9.70;94.10
23147;DHT22;11742;53.532;-1.478;2022-11-20T05:06:33;9.70;94.10
23147;DHT22;11742;53.532;-1.478;2022-11-20T05:08:59;9.70;94.10
23147;DHT22;11742;53.532;-1.478;2022-11-20T05:11:26;9.70;94.10
23147;DHT22;11742;53.532;-1.478;2022-11-20T05:13:54;9.70;94.10
23147;DHT22;11742;53.532;-1.478;2022-11-20T05:16:22;9.70;94.10
23147;DHT22;11742;53.532;-1.478;2022-11-20T05:18:48;9.70;94.10
23147;DHT22;11742;53.532;-1.478;2022-11-20T05:21:15;9.70;94.00
23147;DHT22;11742;53.532;-1.478;2022-11-20T05:23:41;9.70;94.10
23147;DHT22;11742;53.532;-1.478;2022-11-20T05:26:08;9.70;94.10
23147;DHT22;11742;53.532;-1.478;2022-11-20T05:28:37;9.70;94.10
23147;DHT22;11742;53.532;-1.478;2022-11-20T05:31:12;9.70;94.10
23147;DHT22;11742;53.532;-1.478;2022-11-20T05:33:40;9.70;94.10
23147;DHT22;11742;53.532;-1.478;2022-11-20T05:36:07;9.70;94.10
23147;DHT22;11742;53.532;-1.478;2022-11-20T05:38:33;9.70;94.10
23147;DHT22;11742;53.532;-1.478;2022-11-20T05:41:17;9.70;94.10
23147;DHT22;11742;53.532;-1.478;2022-11-20T05:43:44;9.70;94.10
23147;DHT22;11742;53.532;-1.478;2022-11-20T05:46:12;9.70;94.10
23147;DHT22;11742;53.532;-1.478;2022-11-20T05:48:40;9.70;94.10
23147;DHT22;11742;53.532;-1.478;2022-11-20T05:51:08;9.70;94.10
23147;DHT22;11742;53.532;-1.478;2022-11-20T05:53:35;9.70;94.10
23147;DHT22;11742;53.532;-1.478;2022-11-20T05:56:05;9.70;94.10
23147;DHT22;11742;53.532;-1.478;2022-11-20T05:58:32;9.70;94.10
23147;DHT22;11742;53.532;-1.478;2022-11-20T06:01:17;9.70;94.10
23147;DHT22;11742;53.532;-1.478;2022-11-20T06:03:44;9.70;94.10
23147;DHT22;11742;53.532;-1.478;2022-11-20T06:06:14;9.70;94.10
23147;DHT22;11742;53.532;-1.478;2022-11-20T06:08:40;9.70;94.10
23147;DHT22;11742;53.532;-1.478;2022-11-20T06:11:10;9.70;94.10
23147;DHT22;11742;53.532;-1.478;2022-11-20T06:13:36;9.70;94.10
23147;DHT22;11742;53.532;-1.478;2022-11-20T06:16:02;9.70;94.10
23147;DHT22;11742;53.532;-1.478;2022-11-20T06:18:29;9.70;94.10
23147;DHT22;11742;53.532;-1.478;2022-11-20T06:23:32;9.70;94.00
23147;DHT22;11742;53.532;-1.478;2022-11-20T06:26:04;9.70;94.10
23147;DHT22;11742;53.532;-1.478;2022-11-20T06:28:31;9.70;94.00
23147;DHT22;11742;53.532;-1.478;2022-11-20T06:30:57;9.70;94.00
23147;DHT22;11742;53.532;-1.478;2022-11-20T06:33:23;9.70;94.00
23147;DHT22;11742;53.532;-1.478;2022-11-20T06:35:49;9.70;94.00
23147;DHT22;11742;53.532;-1.478;2022-11-20T06:38:14;9.70;94.00
23147;DHT22;11742;53.532;-1.478;2022-11-20T06:40:41;9.70;94.00
23147;DHT22;11742;53.532;-1.478;2022-11-20T06:43:07;9.60;94.00
23147;DHT22;11742;53.532;-1.478;2022-11-20T06:45:32;9.60;94.00
23147;DHT22;11742;53.532;-1.478;2022-11-20T06:47:58;9.70;94.00
23147;DHT22;11742;53.532;-1.478;2022-11-20T06:50:24;9.60;94.00
23147;DHT22;11742;53.532;-1.478;2022-11-20T06:52:49;9.60;94.00
23147;DHT22;11742;53.532;-1.478;2022-11-20T06:55:15;9.60;94.00
23147;DHT22;11742;53.532;-1.478;2022-11-20T06:57:41;9.60;94.00
23147;DHT22;11742;53.532;-1.478;2022-11-20T07:00:07;9.60;94.00
23147;DHT22;11742;53.532;-1.478;2022-11-20T07:02:32;9.60;94.00
23147;DHT22;11742;53.532;-1.478;2022-11-20T07:04:58;9.60;94.00
23147;DHT22;11742;53.532;-1.478;2022-11-20T07:07:24;9.60;94.00
23147;DHT22;11742;53.532;-1.478;2022-11-20T07:09:49;9.60;94.00
23147;DHT22;11742;53.532;-1.478;2022-11-20T07:12:15;9.60;94.00
23147;DHT22;11742;53.532;-1.478;2022-11-20T07:14:41;9.60;94.00
23147;DHT22;11742;53.532;-1.478;2022-11-20T07:17:06;9.60;94.00
23147;DHT22;11742;53.532;-1.478;2022-11-20T07:19:32;9.60;94.00
23147;DHT22;11742;53.532;-1.478;2022-11-20T07:21:57;9.60;94.00
23147;DHT22;11742;53.532;-1.478;2022-11-20T07:24:23;9.60;94.00
23147;DHT22;11742;53.532;-1.478;2022-11-20T07:26:49;9.60;94.00
23147;DHT22;11742;53.532;-1.478;2022-11-20T07:29:15;9.60;94.00
23147;DHT22;11742;53.532;-1.478;2022-11-20T07:31:42;9.60;94.00
23147;DHT22;11742;53.532;-1.478;2022-11-20T07:34:08;9.60;94.00
23147;DHT22;11742;53.532;-1.478;2022-11-20T07:36:34;9.60;94.00
23147;DHT22;11742;53.532;-1.478;2022-11-20T07:38:59;9.60;94.00
23147;DHT22;11742;53.532;-1.478;2022-11-20T07:41:25;9.60;94.00
23147;DHT22;11742;53.532;-1.478;2022-11-20T07:43:50;9.60;94.00
23147;DHT22;11742;53.532;-1.478;2022-11-20T07:46:16;9.60;94.00
23147;DHT22;11742;53.532;-1.478;2022-11-20T07:48:42;9.60;94.00
23147;DHT22;11742;53.532;-1.478;2022-11-20T07:51:08;9.60;94.00
23147;DHT22;11742;53.532;-1.478;2022-11-20T07:53:33;9.60;94.00
23147;DHT22;11742;53.532;-1.478;2022-11-20T07:56:00;9.60;94.00
23147;DHT22;11742;53.532;-1.478;2022-11-20T07:58:27;9.50;94.00
23147;DHT22;11742;53.532;-1.478;2022-11-20T08:00:53;9.60;94.00
23147;DHT22;11742;53.532;-1.478;2022-11-20T08:03:19;9.50;94.00
23147;DHT22;11742;53.532;-1.478;2022-11-20T08:05:45;9.50;94.00
23147;DHT22;11742;53.532;-1.478;2022-11-20T08:08:10;9.50;94.00
23147;DHT22;11742;53.532;-1.478;2022-11-20T08:10:36;9.50;94.00
23147;DHT22;11742;53.532;-1.478;2022-11-20T08:13:02;9.50;94.00
23147;DHT22;11742;53.532;-1.478;2022-11-20T08:15:56;9.50;94.10
23147;DHT22;11742;53.532;-1.478;2022-11-20T08:18:22;9.50;94.10
23147;DHT22;11742;53.532;-1.478;2022-11-20T08:20:48;9.50;94.10
23147;DHT22;11742;53.532;-1.478;2022-11-20T08:23:13;9.50;94.10
23147;DHT22;11742;53.532;-1.478;2022-11-20T08:25:39;9.50;94.00
23147;DHT22;11742;53.532;-1.478;2022-11-20T08:28:07;9.50;94.10
23147;DHT22;11742;53.532;-1.478;2022-11-20T08:30:34;9.50;94.00
23147;DHT22;11742;53.532;-1.478;2022-11-20T08:33:02;9.50;94.00
23147;DHT22;11742;53.532;-1.478;2022-11-20T08:35:28;9.50;94.00
23147;DHT22;11742;53.532;-1.478;2022-11-20T08:37:54;9.50;94.00
23147;DHT22;11742;53.532;-1.478;2022-11-20T08:40:19;9.50;94.00
23147;DHT22;11742;53.532;-1.478;2022-11-20T08:42:49;9.50;94.00
23147;DHT22;11742;53.532;-1.478;2022-11-20T08:45:15;9.50;94.00
23147;DHT22;11742;53.532;-1.478;2022-11-20T08:47:41;9.50;94.00
23147;DHT22;11742;53.532;-1.478;2022-11-20T08:50:08;9.50;94.00
23147;DHT22;11742;53.532;-1.478;2022-11-20T08:52:34;9.50;94.10
23147;DHT22;11742;53.532;-1.478;2022-11-20T08:55:00;9.50;94.10
23147;DHT22;11742;53.532;-1.478;2022-11-20T08:57:26;9.50;94.00
23147;DHT22;11742;53.532;-1.478;2022-11-20T08:59:51;9.50;94.00
23147;DHT22;11742;53.532;-1.478;2022-11-20T09:02:17;9.50;94.00
23147;DHT22;11742;53.532;-1.478;2022-11-20T09:04:42;9.50;94.00
23147;DHT22;11742;53.532;-1.478;2022-11-20T09:07:08;9.60;94.00
23147;DHT22;11742;53.532;-1.478;2022-11-20T09:09:34;9.60;94.10
23147;DHT22;11742;53.532;-1.478;2022-11-20T09:11:59;9.60;94.10
23147;DHT22;11742;53.532;-1.478;2022-11-20T09:14:25;9.60;94.10
23147;DHT22;11742;53.532;-1.478;2022-11-20T09:16:55;9.60;94.10
23147;DHT22;11742;53.532;-1.478;2022-11-20T09:19:21;9.60;94.10
23147;DHT22;11742;53.532;-1.478;2022-11-20T09:21:46;9.60;94.10
23147;DHT22;11742;53.532;-1.478;2022-11-20T09:24:12;9.60;94.10
23147;DHT22;11742;53.532;-1.478;2022-11-20T09:26:37;9.60;94.10
23147;DHT22;11742;53.532;-1.478;2022-11-20T09:29:03;9.60;94.10
23147;DHT22;11742;53.532;-1.478;2022-11-20T09:31:29;9.60;94.10
23147;DHT22;11742;53.532;-1.478;2022-11-20T09:33:54;9.60;94.10
23147;DHT22;11742;53.532;-1.478;2022-11-20T09:36:20;9.70;94.50
23147;DHT22;11742;53.532;-1.478;2022-11-20T09:38:46;9.70;94.20
23147;DHT22;11742;53.532;-1.478;2022-11-20T09:50:17;9.70;94.20
23147;DHT22;11742;53.532;-1.478;2022-11-20T09:55:19;9.70;94.20
23147;DHT22;11742;53.532;-1.478;2022-11-20T09:57:48;9.80;94.30
23147;DHT22;11742;53.532;-1.478;2022-11-20T10:00:16;9.80;94.30
23147;DHT22;11742;53.532;-1.478;2022-11-20T10:05:44;9.80;94.30
23147;DHT22;11742;53.532;-1.478;2022-11-20T10:11:04;9.80;94.20
23147;DHT22;11742;53.532;-1.478;2022-11-20T10:13:54;9.80;94.30
23147;DHT22;11742;53.532;-1.478;2022-11-20T10:24:55;9.90;94.30
23147;DHT22;11742;53.532;-1.478;2022-11-20T10:30:16;10.00;94.30
23147;DHT22;11742;53.532;-1.478;2022-11-20T10:33:33;10.00;94.30
23147;DHT22;11742;53.532;-1.478;2022-11-20T10:38:22;10.00;94.30
23147;DHT22;11742;53.532;-1.478;2022-11-20T10:40:53;10.10;94.40
23147;DHT22;11742;53.532;-1.478;2022-11-20T10:43:40;10.10;94.40
23147;DHT22;11742;53.532;-1.478;2022-11-20T10:46:14;10.20;94.40
23147;DHT22;11742;53.532;-1.478;2022-11-20T10:48:43;10.20;94.40
23147;DHT22;11742;53.532;-1.478;2022-11-20T10:51:39;10.20;94.80
23147;DHT22;11742;53.532;-1.478;2022-11-20T10:54:36;10.30;94.40
23147;DHT22;11742;53.532;-1.478;2022-11-20T10:57:19;10.40;94.50
23147;DHT22;11742;53.532;-1.478;2022-11-20T11:00:01;10.40;94.50
23147;DHT22;11742;53.532;-1.478;2022-11-20T11:02:44;10.50;94.50
23147;DHT22;11742;53.532;-1.478;2022-11-20T11:05:41;10.60;94.50
23147;DHT22;11742;53.532;-1.478;2022-11-20T11:08:17;10.70;94.60
23147;DHT22;11742;53.532;-1.478;2022-11-20T11:10:55;10.70;94.60
23147;DHT22;11742;53.532;-1.478;2022-11-20T11:13:28;10.70;94.60
23147;DHT22;11742;53.532;-1.478;2022-11-20T11:15:55;10.80;94.60
23147;DHT22;11742;53.532;-1.478;2022-11-20T11:18:30;10.90;94.70
23147;DHT22;11742;53.532;-1.478;2022-11-20T11:20:59;10.90;94.70
23147;DHT22;11742;53.532;-1.478;2022-11-20T11:23:34;11.00;94.70
23147;DHT22;11742;53.532;-1.478;2022-11-20T11:26:04;11.10;95.40
23147;DHT22;11742;53.532;-1.478;2022-11-20T11:28:30;11.10;96.10
23147;DHT22;11742;53.532;-1.478;2022-11-20T11:30:57;11.20;95.50
23147;DHT22;11742;53.532;-1.478;2022-11-20T11:33:31;11.20;95.40
23147;DHT22;11742;53.532;-1.478;2022-11-20T11:36:05;11.30;95.30
23147;DHT22;11742;53.532;-1.478;2022-11-20T11:38:43;11.30;95.70
23147;DHT22;11742;53.532;-1.478;2022-11-20T11:41:13;11.40;96.00
23147;DHT22;11742;53.532;-1.478;2022-11-20T11:43:56;11.40;96.00
23147;DHT22;11742;53.532;-1.478;2022-11-20T11:46:51;11.50;95.90
23147;DHT22;11742;53.532;-1.478;2022-11-20T11:49:19;11.50;95.40
23147;DHT22;11742;53.532;-1.478;2022-11-20T12:00:16;11.80;96.10
23147;DHT22;11742;53.532;-1.478;2022-11-20T12:05:18;11.90;96.00
23147;DHT22;11742;53.532;-1.478;2022-11-20T12:10:40;12.00;96.10
23147;DHT22;11742;53.532;-1.478;2022-11-20T12:15:46;12.10;96.10
23147;DHT22;11742;53.532;-1.478;2022-11-20T12:18:18;12.20;96.30
23147;DHT22;11742;53.532;-1.478;2022-11-20T12:23:34;12.30;95.90
23147;DHT22;11742;53.532;-1.478;2022-11-20T12:26:24;12.30;96.10
23147;DHT22;11742;53.532;-1.478;2022-11-20T12:34:02;12.50;96.10
23147;DHT22;11742;53.532;-1.478;2022-11-20T12:37:00;12.50;96.00
23147;DHT22;11742;53.532;-1.478;2022-11-20T12:39:35;12.60;96.00
23147;DHT22;11742;53.532;-1.478;2022-11-20T12:45:36;12.70;95.60
23147;DHT22;11742;53.532;-1.478;2022-11-20T12:48:31;12.70;95.10
23147;DHT22;11742;53.532;-1.478;2022-11-20T12:56:43;13.10;93.40
23147;DHT22;11742;53.532;-1.478;2022-11-20T12:59:55;13.30;93.60
23147;DHT22;11742;53.532;-1.478;2022-11-20T13:05:21;13.60;93.80
23147;DHT22;11742;53.532;-1.478;2022-11-20T13:07:52;13.70;93.70
23147;DHT22;11742;53.532;-1.478;2022-11-20T13:13:43;13.90;93.60
23147;DHT22;11742;53.532;-1.478;2022-11-20T13:16:17;14.10;93.50
23147;DHT22;11742;53.532;-1.478;2022-11-20T13:18:46;14.10;93.30
23147;DHT22;11742;53.532;-1.478;2022-11-20T13:21:34;14.20;93.20
23147;DHT22;11742;53.532;-1.478;2022-11-20T13:24:27;14.30;93.10
23147;DHT22;11742;53.532;-1.478;2022-11-20T13:29:40;14.50;92.90
23147;DHT22;11742;53.532;-1.478;2022-11-20T13:32:16;14.50;92.80
23147;DHT22;11742;53.532;-1.478;2022-11-20T13:34:56;14.60;92.80
23147;DHT22;11742;53.532;-1.478;2022-11-20T13:37:33;14.70;92.70
23147;DHT22;11742;53.532;-1.478;2022-11-20T13:45:30;14.90;92.40
23147;DHT22;11742;53.532;-1.478;2022-11-20T13:47:59;14.90;92.30
23147;DHT22;11742;53.532;-1.478;2022-11-20T13:50:55;15.00;92.20
23147;DHT22;11742;53.532;-1.478;2022-11-20T13:56:11;15.10;92.00
23147;DHT22;11742;53.532;-1.478;2022-11-20T13:59:29;15.10;91.90
23147;DHT22;11742;53.532;-1.478;2022-11-20T14:01:57;15.20;91.80
23147;DHT22;11742;53.532;-1.478;2022-11-20T14:04:30;15.20;91.70
23147;DHT22;11742;53.532;-1.478;2022-11-20T14:06:58;15.20;91.60
23147;DHT22;11742;53.532;-1.478;2022-11-20T14:09:28;15.20;91.50
23147;DHT22;11742;53.532;-1.478;2022-11-20T14:11:54;15.20;91.50
23147;DHT22;11742;53.532;-1.478;2022-11-20T14:14:23;15.30;91.80
23147;DHT22;11742;53.532;-1.478;2022-11-20T14:16:51;15.30;91.40
23147;DHT22;11742;53.532;-1.478;2022-11-20T14:19:27;15.30;91.30
23147;DHT22;11742;53.532;-1.478;2022-11-20T14:22:26;15.30;91.20
23147;DHT22;11742;53.532;-1.478;2022-11-20T14:27:37;15.40;91.10
23147;DHT22;11742;53.532;-1.478;2022-11-20T14:30:04;15.40;91.00
23147;DHT22;11742;53.532;-1.478;2022-11-20T14:32:31;15.40;90.90
23147;DHT22;11742;53.532;-1.478;2022-11-20T14:35:02;15.40;90.90
23147;DHT22;11742;53.532;-1.478;2022-11-20T14:37:37;15.40;90.90
23147;DHT22;11742;53.532;-1.478;2022-11-20T14:40:21;15.40;90.80
23147;DHT22;11742;53.532;-1.478;2022-11-20T14:42:47;15.40;90.80
23147;DHT22;11742;53.532;-1.478;2022-11-20T14:45:13;15.40;90.70
23147;DHT22;11742;53.532;-1.478;2022-11-20T14:47:40;15.40;90.90
23147;DHT22;11742;53.532;-1.478;2022-11-20T14:50:14;15.40;90.60
23147;DHT22;11742;53.532;-1.478;2022-11-20T14:52:59;15.40;90.60
23147;DHT22;11742;53.532;-1.478;2022-11-20T14:55:38;15.40;90.60
23147;DHT22;11742;53.532;-1.478;2022-11-20T14:58:21;15.40;90.50
23147;DHT22;11742;53.532;-1.478;2022-11-20T15:00:59;15.40;90.50
23147;DHT22;11742;53.532;-1.478;2022-11-20T15:03:35;15.40;90.40
23147;DHT22;11742;53.532;-1.478;2022-11-20T15:06:02;15.40;90.40
23147;DHT22;11742;53.532;-1.478;2022-11-20T15:08:28;15.30;90.40
23147;DHT22;11742;53.532;-1.478;2022-11-20T15:10:54;15.30;90.40
23147;DHT22;11742;53.532;-1.478;2022-11-20T15:13:34;15.30;90.30
23147;DHT22;11742;53.532;-1.478;2022-11-20T15:16:02;15.30;90.30
23147;DHT22;11742;53.532;-1.478;2022-11-20T15:18:36;15.30;90.30
23147;DHT22;11742;53.532;-1.478;2022-11-20T15:21:06;15.30;90.40
23147;DHT22;11742;53.532;-1.478;2022-11-20T15:23:34;15.30;90.30
23147;DHT22;11742;53.532;-1.478;2022-11-20T15:26:00;15.30;90.30
23147;DHT22;11742;53.532;-1.478;2022-11-20T15:28:41;15.20;90.70
23147;DHT22;11742;53.532;-1.478;2022-11-20T15:31:12;15.30;90.40
23147;DHT22;11742;53.532;-1.478;2022-11-20T15:33:37;15.20;90.30
23147;DHT22;11742;53.532;-1.478;2022-11-20T15:36:04;15.20;90.40
23147;DHT22;11742;53.532;-1.478;2022-11-20T15:38:29;15.20;90.40
23147;DHT22;11742;53.532;-1.478;2022-11-20T15:40:55;15.10;90.30
23147;DHT22;11742;53.532;-1.478;2022-11-20T15:43:21;15.20;90.40
23147;DHT22;11742;53.532;-1.478;2022-11-20T15:45:56;15.10;90.30
23147;DHT22;11742;53.532;-1.478;2022-11-20T15:53:43;15.10;90.40
23147;DHT22;11742;53.532;-1.478;2022-11-20T15:56:12;15.10;90.40
23147;DHT22;11742;53.532;-1.478;2022-11-20T15:58:39;15.00;90.40
23147;DHT22;11742;53.532;-1.478;2022-11-20T16:01:04;15.00;90.40
23147;DHT22;11742;53.532;-1.478;2022-11-20T16:03:30;15.00;90.40
23147;DHT22;11742;53.532;-1.478;2022-11-20T16:05:56;14.90;90.40
23147;DHT22;11742;53.532;-1.478;2022-11-20T16:08:21;14.90;90.40
23147;DHT22;11742;53.532;-1.478;2022-11-20T16:10:47;14.90;90.40
23147;DHT22;11742;53.532;-1.478;2022-11-20T16:13:17;14.90;90.40
23147;DHT22;11742;53.532;-1.478;2022-11-20T16:16:04;14.90;90.40
23147;DHT22;11742;53.532;-1.478;2022-11-20T16:18:30;14.90;90.40
23147;DHT22;11742;53.532;-1.478;2022-11-20T16:20:56;14.80;90.40
23147;DHT22;11742;53.532;-1.478;2022-11-20T16:23:23;14.80;90.40
23147;DHT22;11742;53.532;-1.478;2022-11-20T16:25:49;14.80;90.40
23147;DHT22;11742;53.532;-1.478;2022-11-20T16:28:16;14.80;90.40
23147;DHT22;11742;53.532;-1.478;2022-11-20T16:30:42;14.70;90.30
23147;DHT22;11742;53.532;-1.478;2022-11-20T16:33:13;14.70;90.30
23147;DHT22;11742;53.532;-1.478;2022-11-20T16:35:39;14.70;90.30
23147;DHT22;11742;53.532;-1.478;2022-11-20T16:38:05;14.60;90.30
23147;DHT22;11742;53.532;-1.478;2022-11-20T16:40:31;14.60;90.30
23147;DHT22;11742;53.532;-1.478;2022-11-20T16:42:57;14.60;90.20
23147;DHT22;11742;53.532;-1.478;2022-11-20T16:45:23;14.60;90.20
23147;DHT22;11742;53.532;-1.478;2022-11-20T16:47:49;14.60;90.20
23147;DHT22;11742;53.532;-1.478;2022-11-20T16:50:14;14.50;90.10
23147;DHT22;11742;53.532;-1.478;2022-11-20T16:52:40;14.50;90.10
23147;DHT22;11742;53.532;-1.478;2022-11-20T16:55:06;14.40;90.10
23147;DHT22;11742;53.532;-1.478;2022-11-20T16:57:32;14.40;90.10
23147;DHT22;11742;53.532;-1.478;2022-11-20T16:59:59;14.40;90.20
23147;DHT22;11742;53.532;-1.478;2022-11-20T17:02:25;14.40;90.20
23147;DHT22;11742;53.532;-1.478;2022-11-20T17:04:51;14.30;90.20
23147;DHT22;11742;53.532;-1.478;2022-11-20T17:07:17;14.30;90.20
23147;DHT22;11742;53.532;-1.478;2022-11-20T17:09:43;14.30;90.20
23147;DHT22;11742;53.532;-1.478;2022-11-20T17:12:08;14.20;90.20
23147;DHT22;11742;53.532;-1.478;2022-11-20T17:14:34;14.20;90.20
23147;DHT22;11742;53.532;-1.478;2022-11-20T17:17:00;14.20;90.20